Time;durP1;ratioP1;P1;durP2;ratioP2;P2;SDS_P1;SDS_P2;PMS_P1;PMS_P2;Temp;Humidity;BMP_temperature;BMP_pressure;BME280_temperature;BME280_humidity;BME280_pressure;Samples;Min_cycle;Max_cycle;Signal;HPM_P1;HPM_P2
2021/04/30 00:01:37;;;;;;;10.70;8.55;;;4.50;99.90;;;;;;5051184;28;20474;-78
2021/04/30 00:04:03;;;;;;;13.10;9.35;;;4.50;99.90;;;;;;5053456;28;20051;-79
2021/04/30 00:06:30;;;;;;;10.95;7.80;;;4.40;99.90;;;;;;5053350;28;20147;-79
2021/04/30 00:08:56;;;;;;;11.30;8.18;;;4.50;99.90;;;;;;5054203;28;20029;-79
2021/04/30 00:11:22;;;;;;;12.48;8.80;;;4.40;99.90;;;;;;5052842;28;20036;-77
2021/04/30 00:13:49;;;;;;;11.82;8.40;;;4.30;99.90;;;;;;5051779;28;20028;-78
2021/04/30 00:16:15;;;;;;;11.18;8.88;;;4.30;99.90;;;;;;5052035;28;20032;-79
2021/04/30 00:18:41;;;;;;;11.32;8.63;;;4.30;99.90;;;;;;5051386;28;20036;-78
2021/04/30 00:21:08;;;;;;;10.23;8.05;;;4.40;99.90;;;;;;5051659;28;20051;-78
2021/04/30 00:23:34;;;;;;;12.07;9.00;;;4.40;99.90;;;;;;5051533;28;20045;-79
2021/04/30 00:26:03;;;;;;;13.43;9.75;;;4.30;99.90;;;;;;5051775;28;20041;-78
2021/04/30 00:28:30;;;;;;;12.15;8.73;;;4.30;99.90;;;;;;5065827;28;20498;-79
2021/04/30 00:30:57;;;;;;;12.85;8.48;;;4.30;99.90;;;;;;5061566;28;20041;-78
2021/04/30 00:33:24;;;;;;;10.55;8.68;;;4.20;99.90;;;;;;5062763;28;20493;-78
2021/04/30 00:35:51;;;;;;;13.43;9.57;;;4.20;99.90;;;;;;5061660;28;20029;-79
2021/04/30 00:38:18;;;;;;;11.18;8.50;;;4.10;99.90;;;;;;5061710;28;20047;-78
2021/04/30 00:40:49;;;;;;;11.73;9.15;;;4.00;99.90;;;;;;5051140;28;20029;-78
2021/04/30 00:43:15;;;;;;;8.73;6.80;;;4.10;99.90;;;;;;5063741;28;20390;-78
2021/04/30 00:45:42;;;;;;;12.27;9.73;;;4.00;99.90;;;;;;5053193;28;20598;-79
2021/04/30 00:48:10;;;;;;;13.02;8.93;;;4.00;99.90;;;;;;5066580;28;20028;-79
2021/04/30 00:50:36;;;;;;;11.45;8.23;;;4.00;99.90;;;;;;5051179;28;20036;-78
2021/04/30 00:53:03;;;;;;;12.20;9.00;;;3.90;99.90;;;;;;5058309;28;20028;-78
2021/04/30 00:55:30;;;;;;;12.95;9.27;;;3.80;99.90;;;;;;5065453;28;20033;-78
2021/04/30 00:57:58;;;;;;;13.88;10.18;;;3.90;99.90;;;;;;5051653;28;20382;-78
2021/04/30 01:00:29;;;;;;;13.80;10.52;;;3.90;99.90;;;;;;5051018;28;20025;-78
2021/04/30 01:02:56;;;;;;;12.52;9.85;;;3.90;99.90;;;;;;5051730;28;20470;-78
2021/04/30 01:05:23;;;;;;;13.75;9.52;;;3.90;99.90;;;;;;5051142;28;20021;-77
2021/04/30 01:07:51;;;;;;;12.60;9.35;;;3.80;99.90;;;;;;5052480;28;20037;-78
2021/04/30 01:10:19;;;;;;;13.25;9.35;;;3.80;99.90;;;;;;5069695;28;20036;-78
2021/04/30 01:12:46;;;;;;;12.93;9.85;;;3.90;99.90;;;;;;5054916;28;20389;-78
2021/04/30 01:15:15;;;;;;;16.38;10.75;;;3.90;99.90;;;;;;5070252;28;20373;-78
2021/04/30 01:17:41;;;;;;;19.40;11.30;;;4.10;99.90;;;;;;5059813;28;20033;-79
2021/04/30 01:20:10;;;;;;;15.65;10.57;;;4.20;99.90;;;;;;5054248;28;20052;-79
2021/04/30 01:22:38;;;;;;;16.65;11.65;;;4.30;99.90;;;;;;5065096;28;20040;-79
2021/04/30 01:25:08;;;;;;;14.13;10.63;;;4.40;99.90;;;;;;5063637;28;20028;-80
2021/04/30 01:27:35;;;;;;;15.65;11.23;;;4.50;99.90;;;;;;5066866;28;20128;-79
2021/04/30 01:30:05;;;;;;;15.27;10.93;;;4.60;99.90;;;;;;5056192;28;20033;-79
2021/04/30 01:32:31;;;;;;;15.65;11.15;;;4.50;99.90;;;;;;5061041;28;20068;-79
2021/04/30 01:34:58;;;;;;;15.70;10.95;;;4.60;99.90;;;;;;5066673;28;20501;-79
2021/04/30 01:37:25;;;;;;;14.40;11.27;;;4.50;99.90;;;;;;5059064;28;20041;-78
2021/04/30 01:39:52;;;;;;;15.07;11.63;;;4.50;99.90;;;;;;5067783;28;20040;-79
2021/04/30 01:42:19;;;;;;;13.32;10.10;;;4.50;99.90;;;;;;5054726;28;20036;-79
2021/04/30 01:44:48;;;;;;;14.68;9.88;;;4.30;99.90;;;;;;5054138;28;20044;-79
2021/04/30 01:47:14;;;;;;;15.23;10.57;;;4.30;99.90;;;;;;5054582;28;20512;-79
2021/04/30 01:49:41;;;;;;;13.20;10.30;;;4.20;99.90;;;;;;5053997;28;20033;-79
2021/04/30 01:52:07;;;;;;;13.15;9.70;;;4.10;99.90;;;;;;5054594;28;20033;-79
2021/04/30 01:54:34;;;;;;;14.55;9.82;;;3.90;99.90;;;;;;5055180;28;20033;-79
2021/04/30 01:57:00;;;;;;;13.50;9.50;;;3.70;99.90;;;;;;5070278;28;20021;-79
2021/04/30 01:59:26;;;;;;;11.82;9.15;;;3.50;99.90;;;;;;5054064;28;20469;-78
2021/04/30 02:01:52;;;;;;;13.95;10.27;;;3.40;99.90;;;;;;5054056;28;20044;-79
2021/04/30 02:04:18;;;;;;;12.52;9.43;;;3.20;99.90;;;;;;5061326;28;20028;-79
2021/04/30 02:06:48;;;;;;;14.65;10.70;;;3.00;99.90;;;;;;5061470;28;20041;-79
2021/04/30 02:09:14;;;;;;;14.25;10.13;;;2.90;99.90;;;;;;5063271;28;20037;-79
2021/04/30 02:11:40;;;;;;;15.95;11.10;;;2.80;99.90;;;;;;5053523;28;20307;-79
2021/04/30 02:14:07;;;;;;;17.80;11.25;;;2.80;99.90;;;;;;5054125;28;20429;-79
2021/04/30 02:16:34;;;;;;;18.83;12.02;;;2.80;99.90;;;;;;5058274;28;20033;-79
2021/04/30 02:19:00;;;;;;;17.20;11.48;;;2.80;99.90;;;;;;5065421;28;20029;-79
2021/04/30 02:21:27;;;;;;;16.23;10.57;;;2.70;99.90;;;;;;5053182;28;20041;-79
2021/04/30 02:23:54;;;;;;;17.52;12.05;;;2.50;99.90;;;;;;5054386;28;20051;-79
2021/04/30 02:26:22;;;;;;;20.35;14.27;;;2.50;99.90;;;;;;5053876;28;20033;-78
2021/04/30 02:28:48;;;;;;;19.77;12.98;;;2.50;99.90;;;;;;5055419;28;20032;-79
2021/04/30 02:31:15;;;;;;;23.23;14.50;;;2.40;99.90;;;;;;5056851;28;20040;-77
2021/04/30 02:33:42;;;;;;;22.35;13.68;;;2.40;99.90;;;;;;5055713;28;20048;-79
2021/04/30 02:36:08;;;;;;;21.00;13.73;;;2.40;99.90;;;;;;5054944;28;20037;-79
2021/04/30 02:38:35;;;;;;;19.13;12.55;;;2.50;99.90;;;;;;5067851;28;20052;-78
2021/04/30 02:41:02;;;;;;;17.95;12.38;;;2.40;99.90;;;;;;5065834;28;20049;-78
2021/04/30 02:43:29;;;;;;;18.70;12.95;;;2.20;99.90;;;;;;5052853;28;20063;-78
2021/04/30 02:45:56;;;;;;;21.17;13.68;;;2.10;99.90;;;;;;5052397;28;20466;-78
2021/04/30 02:48:31;;;;;;;21.27;13.75;;;2.00;99.90;;;;;;5052862;28;20402;-77
2021/04/30 02:51:00;;;;;;;23.10;15.02;;;2.00;99.90;;;;;;5057869;28;20044;-78
2021/04/30 02:53:27;;;;;;;20.58;14.73;;;2.10;99.90;;;;;;5069117;28;20131;-77
2021/04/30 02:55:53;;;;;;;22.90;14.80;;;2.20;99.90;;;;;;5053501;28;20044;-78
2021/04/30 02:58:20;;;;;;;23.85;15.93;;;2.20;99.90;;;;;;5062109;28;20039;-78
2021/04/30 03:00:47;;;;;;;19.77;14.50;;;2.30;99.90;;;;;;5064652;28;20392;-78
2021/04/30 03:03:13;;;;;;;22.67;16.10;;;2.30;99.90;;;;;;5052806;28;20053;-78
2021/04/30 03:05:41;;;;;;;21.98;14.73;;;2.40;99.90;;;;;;5052558;28;20033;-78
2021/04/30 03:08:07;;;;;;;22.38;15.07;;;2.40;99.90;;;;;;5053010;28;20040;-78
2021/04/30 03:10:34;;;;;;;21.42;13.95;;;2.40;99.90;;;;;;5052077;28;20029;-78
2021/04/30 03:13:00;;;;;;;23.50;15.10;;;2.40;99.90;;;;;;5052877;28;20041;-78
2021/04/30 03:15:27;;;;;;;21.52;13.80;;;2.30;99.90;;;;;;5052437;28;20036;-77
2021/04/30 03:17:54;;;;;;;18.38;13.55;;;2.40;99.90;;;;;;5060967;28;20024;-78
2021/04/30 03:20:21;;;;;;;17.88;12.60;;;2.40;99.90;;;;;;5066251;28;20130;-78
2021/04/30 03:22:48;;;;;;;22.20;12.65;;;2.20;99.90;;;;;;5052262;28;20470;-78
2021/04/30 03:25:16;;;;;;;21.25;13.93;;;2.40;99.90;;;;;;5065686;28;20028;-78
2021/04/30 03:27:42;;;;;;;19.58;13.82;;;2.40;99.90;;;;;;5052715;28;20116;-78
2021/04/30 03:30:10;;;;;;;21.75;14.32;;;2.30;99.90;;;;;;5054151;28;20028;-78
2021/04/30 03:32:36;;;;;;;18.45;13.13;;;2.50;99.90;;;;;;5051360;28;20498;-78
2021/04/30 03:35:05;;;;;;;21.75;14.20;;;2.30;99.90;;;;;;5069500;28;20035;-78
2021/04/30 03:37:31;;;;;;;19.00;12.70;;;2.20;99.90;;;;;;5052549;28;20048;-77
2021/04/30 03:39:57;;;;;;;16.88;12.68;;;1.90;99.90;;;;;;5052449;28;20038;-78
2021/04/30 03:42:24;;;;;;;21.75;12.68;;;1.90;99.90;;;;;;5059528;28;20060;-77
2021/04/30 03:44:50;;;;;;;20.15;13.55;;;1.90;99.90;;;;;;5064927;28;20025;-78
2021/04/30 03:47:16;;;;;;;21.48;13.43;;;1.90;99.90;;;;;;5052216;28;20044;-78
2021/04/30 03:49:42;;;;;;;22.23;13.57;;;2.00;99.90;;;;;;5052584;28;20560;-79
2021/04/30 03:52:08;;;;;;;22.85;13.70;;;1.90;99.90;;;;;;5053843;28;20032;-79
2021/04/30 03:54:35;;;;;;;18.27;12.63;;;1.70;99.90;;;;;;5055188;28;20033;-79
2021/04/30 03:57:02;;;;;;;18.65;12.68;;;1.60;99.90;;;;;;5064097;28;20374;-78
2021/04/30 03:59:29;;;;;;;21.67;13.27;;;1.70;99.90;;;;;;5055529;28;20067;-78
2021/04/30 04:01:55;;;;;;;21.20;13.85;;;1.70;99.90;;;;;;5051764;28;20048;-79
2021/04/30 04:04:21;;;;;;;20.73;13.73;;;1.60;99.90;;;;;;5051867;28;20400;-78
2021/04/30 04:06:47;;;;;;;23.40;14.48;;;1.60;99.90;;;;;;5066245;28;20462;-78
2021/04/30 04:09:14;;;;;;;17.65;13.52;;;1.50;99.90;;;;;;5058499;28;20024;-79
2021/04/30 04:11:41;;;;;;;21.25;13.98;;;1.20;99.90;;;;;;5060200;28;20036;-79
2021/04/30 04:14:07;;;;;;;22.95;15.40;;;1.20;99.90;;;;;;5062098;28;20041;-79
2021/04/30 04:16:34;;;;;;;21.35;14.52;;;1.30;99.90;;;;;;5051885;28;20374;-78
2021/04/30 04:19:01;;;;;;;23.98;14.60;;;1.40;99.90;;;;;;5069072;28;20033;-79
2021/04/30 04:21:27;;;;;;;19.08;14.20;;;1.40;99.90;;;;;;5051298;28;20430;-78
2021/04/30 04:23:53;;;;;;;17.63;12.48;;;1.30;99.90;;;;;;5052537;28;20029;-78
2021/04/30 04:26:19;;;;;;;21.10;13.40;;;1.20;99.90;;;;;;5054127;28;20029;-77
2021/04/30 04:28:46;;;;;;;20.33;13.85;;;1.10;99.90;;;;;;5066737;28;20091;-80
2021/04/30 04:31:12;;;;;;;21.25;14.88;;;1.10;99.90;;;;;;5065933;28;20048;-80
2021/04/30 04:33:38;;;;;;;22.13;15.25;;;1.20;99.90;;;;;;5065065;28;20044;-80
2021/04/30 04:36:05;;;;;;;23.95;14.95;;;1.30;99.90;;;;;;5060267;28;20475;-80
2021/04/30 04:38:31;;;;;;;23.48;14.88;;;1.50;99.90;;;;;;5049419;28;20040;-80
2021/04/30 04:40:57;;;;;;;25.02;14.30;;;1.50;99.90;;;;;;5051701;28;20037;-79
2021/04/30 04:43:24;;;;;;;21.65;14.18;;;1.50;99.90;;;;;;5069240;28;20037;-80
2021/04/30 04:45:51;;;;;;;20.38;14.65;;;1.50;99.90;;;;;;5055471;28;20048;-79
2021/04/30 04:48:17;;;;;;;23.92;14.82;;;1.80;99.90;;;;;;5055077;28;20029;-79
2021/04/30 04:50:44;;;;;;;17.73;13.57;;;2.00;99.90;;;;;;5061211;28;20206;-80
2021/04/30 04:53:10;;;;;;;20.58;13.32;;;2.20;99.90;;;;;;5055579;28;20044;-79
2021/04/30 04:55:36;;;;;;;33.03;18.27;;;2.20;99.90;;;;;;5054979;28;20033;-80
2021/04/30 04:58:02;;;;;;;23.95;14.68;;;2.50;99.90;;;;;;5064307;28;20040;-79
2021/04/30 05:00:32;;;;;;;17.00;11.40;;;2.70;99.90;;;;;;5076296;28;20041;-80
2021/04/30 05:02:58;;;;;;;15.57;13.43;;;2.80;99.90;;;;;;5058756;28;20045;-81
2021/04/30 05:05:26;;;;;;;18.20;16.30;;;3.10;99.90;;;;;;5070817;28;20218;-80
2021/04/30 05:07:53;;;;;;;15.88;12.07;;;4.00;99.90;;;;;;5056677;28;20484;-80
2021/04/30 05:10:20;;;;;;;12.95;10.85;;;4.00;99.90;;;;;;5071885;28;20378;-80
2021/04/30 05:12:46;;;;;;;13.13;9.60;;;3.90;99.90;;;;;;5064312;28;20029;-81
2021/04/30 05:15:15;;;;;;;12.90;9.98;;;4.00;99.90;;;;;;5073580;28;20033;-78
2021/04/30 05:17:43;;;;;;;13.02;9.68;;;4.00;99.90;;;;;;5059679;28;20051;-77
2021/04/30 05:20:13;;;;;;;9.73;8.18;;;4.40;99.90;;;;;;5063589;28;20055;-77
2021/04/30 05:22:41;;;;;;;11.13;8.48;;;5.00;99.90;;;;;;5057221;28;20048;-77
2021/04/30 05:25:13;;;;;;;10.85;8.73;;;5.30;99.00;;;;;;5070972;28;20486;-81
2021/04/30 05:27:40;;;;;;;10.48;9.23;;;5.90;97.30;;;;;;5054344;28;20041;-81
2021/04/30 05:30:09;;;;;;;9.88;8.48;;;6.50;93.90;;;;;;5054933;28;20032;-82
2021/04/30 05:32:35;;;;;;;13.10;8.98;;;6.70;92.30;;;;;;5054123;28;20053;-82
2021/04/30 05:35:03;;;;;;;10.45;8.85;;;6.80;91.50;;;;;;5054623;28;20033;-82
2021/04/30 05:37:33;;;;;;;16.50;10.90;;;6.90;90.50;;;;;;5052689;28;20040;-82
2021/04/30 05:40:00;;;;;;;14.90;11.87;;;7.00;91.20;;;;;;5054643;28;20032;-82
2021/04/30 05:42:27;;;;;;;16.05;13.55;;;6.90;90.40;;;;;;5067441;28;20041;-81
2021/04/30 05:44:53;;;;;;;21.20;15.52;;;6.30;91.90;;;;;;5073099;28;20449;-82
2021/04/30 05:47:23;;;;;;;18.60;14.13;;;5.80;95.10;;;;;;5055432;28;20370;-82
2021/04/30 05:49:49;;;;;;;16.08;12.27;;;5.70;97.90;;;;;;5054116;28;20044;-81
2021/04/30 05:52:16;;;;;;;17.30;12.82;;;5.90;98.70;;;;;;5054716;28;20401;-82
2021/04/30 05:54:42;;;;;;;16.38;13.05;;;5.90;98.00;;;;;;5064554;28;20040;-83
2021/04/30 05:57:08;;;;;;;14.57;12.15;;;6.10;97.50;;;;;;5055817;28;20032;-83
2021/04/30 05:59:35;;;;;;;15.85;10.93;;;6.20;97.70;;;;;;5063532;28;20039;-83
2021/04/30 06:02:01;;;;;;;14.05;12.23;;;6.10;98.10;;;;;;5069109;28;20045;-83
2021/04/30 06:04:28;;;;;;;16.38;12.40;;;6.00;99.20;;;;;;5057563;28;20029;-81
2021/04/30 06:06:55;;;;;;;13.98;11.13;;;6.20;99.60;;;;;;5068287;28;20040;-83
2021/04/30 06:09:21;;;;;;;13.45;11.57;;;6.20;99.60;;;;;;5054781;28;20044;-84
2021/04/30 06:11:48;;;;;;;14.60;11.52;;;6.10;99.90;;;;;;5054189;28;20024;-84
2021/04/30 06:14:14;;;;;;;14.48;12.25;;;6.10;99.90;;;;;;5054972;28;20029;-83
2021/04/30 06:16:41;;;;;;;15.55;11.65;;;6.00;99.90;;;;;;5054474;28;20037;-83
2021/04/30 06:19:07;;;;;;;14.15;11.55;;;6.00;99.90;;;;;;5059968;28;20028;-83
2021/04/30 06:21:34;;;;;;;15.48;11.93;;;6.10;99.90;;;;;;5061083;28;20029;-83
2021/04/30 06:24:01;;;;;;;15.43;12.60;;;6.20;99.90;;;;;;5067319;28;20033;-84
2021/04/30 06:26:28;;;;;;;14.35;12.02;;;6.30;99.90;;;;;;5069186;28;20486;-81
2021/04/30 06:28:55;;;;;;;14.77;12.13;;;6.30;99.90;;;;;;5055953;28;20041;-81
2021/04/30 06:31:22;;;;;;;13.07;11.45;;;6.30;99.90;;;;;;5073932;28;20045;-82
2021/04/30 06:33:49;;;;;;;17.85;13.23;;;6.40;99.90;;;;;;5055230;28;20053;-82
2021/04/30 06:36:15;;;;;;;15.60;13.18;;;6.40;99.90;;;;;;5068033;28;20045;-82
2021/04/30 06:38:42;;;;;;;18.63;11.40;;;6.50;99.90;;;;;;5053669;28;20055;-82
2021/04/30 06:41:09;;;;;;;17.20;12.40;;;6.50;99.30;;;;;;5053740;28;20033;-82
2021/04/30 06:43:35;;;;;;;15.65;11.80;;;6.60;99.80;;;;;;5067091;28;20103;-82
2021/04/30 06:46:02;;;;;;;14.27;11.43;;;6.70;99.60;;;;;;5061911;28;20052;-82
2021/04/30 06:48:28;;;;;;;15.13;11.55;;;6.80;98.30;;;;;;5053191;28;20032;-81
2021/04/30 06:50:55;;;;;;;16.58;12.82;;;6.90;97.80;;;;;;5053325;28;20033;-82
2021/04/30 06:53:21;;;;;;;13.30;11.73;;;7.10;97.70;;;;;;5053268;28;20037;-82
2021/04/30 06:55:48;;;;;;;15.30;12.70;;;7.10;96.20;;;;;;5052961;28;20024;-80
2021/04/30 06:58:14;;;;;;;13.98;11.18;;;7.00;95.40;;;;;;5053459;28;20040;-82
2021/04/30 07:00:41;;;;;;;15.60;12.35;;;7.30;95.70;;;;;;5052936;28;20041;-82
2021/04/30 07:03:07;;;;;;;15.85;12.27;;;7.30;93.30;;;;;;5054161;28;20053;-82
2021/04/30 07:05:33;;;;;;;16.73;12.82;;;7.30;93.00;;;;;;5052398;28;20037;-82
2021/04/30 07:08:02;;;;;;;17.13;12.88;;;7.40;92.70;;;;;;5061373;28;20037;-80
2021/04/30 07:10:29;;;;;;;14.70;12.82;;;7.30;92.30;;;;;;5052773;28;20025;-80
2021/04/30 07:12:56;;;;;;;18.30;11.50;;;7.40;92.20;;;;;;5053116;28;20044;-80
2021/04/30 07:15:22;;;;;;;13.65;11.45;;;7.70;91.50;;;;;;5053315;28;20040;-81
2021/04/30 07:17:48;;;;;;;18.08;12.60;;;7.90;90.70;;;;;;5057724;28;20036;-80
2021/04/30 07:20:15;;;;;;;20.15;12.98;;;8.00;89.10;;;;;;5067607;28;20032;-81
2021/04/30 07:22:42;;;;;;;16.15;12.75;;;8.00;88.60;;;;;;5052618;28;20485;-81
2021/04/30 07:25:09;;;;;;;16.67;12.52;;;8.00;88.20;;;;;;5060864;28;20029;-81
2021/04/30 07:27:35;;;;;;;14.60;12.15;;;7.80;87.30;;;;;;5052835;28;20037;-81
2021/04/30 07:30:03;;;;;;;15.65;13.35;;;8.00;87.40;;;;;;5053428;28;20040;-81
2021/04/30 07:32:29;;;;;;;15.50;11.30;;;8.10;86.00;;;;;;5055919;28;20041;-80
2021/04/30 07:34:56;;;;;;;14.85;12.38;;;8.40;84.10;;;;;;5055518;28;20033;-80
2021/04/30 07:37:22;;;;;;;17.98;14.07;;;8.60;81.90;;;;;;5052824;28;20501;-81
2021/04/30 07:39:48;;;;;;;17.55;12.85;;;8.60;79.60;;;;;;5052666;28;20137;-80
2021/04/30 07:42:15;;;;;;;14.43;12.55;;;8.50;79.90;;;;;;5066727;28;20041;-81
2021/04/30 07:44:42;;;;;;;16.60;12.68;;;8.50;79.00;;;;;;5051036;28;20041;-79
2021/04/30 07:47:08;;;;;;;16.05;13.40;;;8.30;79.80;;;;;;5061879;28;20036;-80
2021/04/30 07:49:34;;;;;;;16.95;13.18;;;8.20;79.80;;;;;;5062897;28;20148;-81
2021/04/30 07:52:01;;;;;;;15.63;12.73;;;8.20;80.60;;;;;;5052867;28;20040;-80
2021/04/30 07:54:27;;;;;;;16.73;12.80;;;8.40;80.10;;;;;;5052150;28;20374;-80
2021/04/30 07:56:53;;;;;;;18.40;12.93;;;8.70;80.20;;;;;;5052348;28;20044;-81
2021/04/30 07:59:19;;;;;;;16.40;12.05;;;9.10;76.10;;;;;;5055393;28;20044;-81
2021/04/30 08:01:46;;;;;;;13.52;12.07;;;9.40;75.70;;;;;;5068103;28;20028;-81
2021/04/30 08:04:12;;;;;;;13.65;10.80;;;9.40;74.10;;;;;;5053871;28;20493;-81
2021/04/30 08:06:38;;;;;;;18.98;11.48;;;9.10;74.60;;;;;;5059185;28;20040;-81
2021/04/30 08:09:07;;;;;;;15.00;11.35;;;9.20;73.20;;;;;;5053040;28;20474;-80
2021/04/30 08:11:35;;;;;;;15.70;10.70;;;9.70;72.30;;;;;;5062388;28;20040;-81
2021/04/30 08:14:01;;;;;;;14.52;10.27;;;10.40;67.50;;;;;;5061229;28;20048;-80
2021/04/30 08:16:28;;;;;;;15.68;11.40;;;10.40;66.90;;;;;;5051475;28;20033;-80
2021/04/30 08:18:54;;;;;;;12.82;10.23;;;10.60;65.70;;;;;;5051615;28;20033;-81
2021/04/30 08:21:20;;;;;;;13.75;11.20;;;10.30;64.40;;;;;;5065537;28;20029;-81
2021/04/30 08:23:47;;;;;;;12.27;9.93;;;9.80;67.00;;;;;;5052089;28;20041;-81
2021/04/30 08:26:13;;;;;;;13.15;10.70;;;10.10;65.10;;;;;;5053072;28;20041;-80
2021/04/30 08:28:39;;;;;;;13.43;11.27;;;10.10;64.90;;;;;;5051638;28;20037;-81
2021/04/30 08:31:06;;;;;;;15.07;11.18;;;10.60;64.50;;;;;;5052516;28;20051;-80
2021/04/30 08:33:32;;;;;;;11.07;9.35;;;10.80;62.80;;;;;;5051639;28;20061;-81
2021/04/30 08:35:58;;;;;;;10.15;8.73;;;10.50;59.20;;;;;;5065671;28;20040;-81
2021/04/30 08:38:24;;;;;;;16.30;11.38;;;10.30;59.90;;;;;;5052274;28;20029;-81
2021/04/30 08:40:51;;;;;;;13.25;11.43;;;10.50;62.00;;;;;;5051953;28;20021;-80
2021/04/30 08:43:18;;;;;;;13.27;10.95;;;10.50;61.80;;;;;;5051998;28;20450;-81
2021/04/30 08:45:46;;;;;;;14.73;11.07;;;10.70;62.20;;;;;;5051545;28;20248;-81
2021/04/30 08:48:14;;;;;;;12.90;11.55;;;10.50;63.10;;;;;;5067451;28;20049;-81
2021/04/30 08:50:42;;;;;;;16.40;13.82;;;10.50;64.50;;;;;;5058547;28;20475;-80
2021/04/30 08:53:09;;;;;;;20.80;12.85;;;10.60;65.30;;;;;;5067257;28;20047;-81
2021/04/30 08:55:35;;;;;;;14.80;12.20;;;10.50;64.80;;;;;;5051831;28;20490;-81
2021/04/30 08:58:05;;;;;;;13.10;11.68;;;10.30;64.40;;;;;;5051767;28;20037;-80
2021/04/30 09:00:32;;;;;;;13.90;11.45;;;10.30;64.40;;;;;;5051492;28;20036;-80
2021/04/30 09:02:59;;;;;;;13.25;11.23;;;11.00;63.40;;;;;;5052144;28;20041;-80
2021/04/30 09:05:30;;;;;;;16.65;11.45;;;10.40;61.60;;;;;;5058876;28;20032;-80
2021/04/30 09:08:00;;;;;;;12.40;11.05;;;10.30;63.00;;;;;;5065441;28;20045;-80
2021/04/30 09:10:35;;;;;;;12.27;10.90;;;10.50;62.90;;;;;;5055673;28;20021;-80
2021/04/30 09:13:05;;;;;;;12.63;10.70;;;10.40;62.30;;;;;;5064264;28;20025;-81
2021/04/30 09:15:33;;;;;;;13.87;12.33;;;10.30;64.10;;;;;;5051203;28;20044;-81
2021/04/30 09:18:18;;;;;;;13.73;11.98;;;10.20;62.20;;;;;;5051419;28;20478;-81
2021/04/30 09:20:47;;;;;;;15.60;11.25;;;9.80;62.70;;;;;;5058690;28;20041;-80
2021/04/30 09:23:43;;;;;;;14.32;11.10;;;9.70;62.40;;;;;;5055638;28;20523;-80
2021/04/30 09:26:26;;;;;;;12.35;10.75;;;9.60;63.20;;;;;;5051630;28;20045;-80
2021/04/30 09:29:08;;;;;;;15.30;10.68;;;9.50;62.50;;;;;;5069294;28;20419;-80
2021/04/30 09:31:40;;;;;;;16.75;11.10;;;9.30;63.20;;;;;;5055123;28;20064;-79
2021/04/30 09:34:24;;;;;;;19.73;12.38;;;9.30;63.50;;;;;;5072324;28;20410;-80
2021/04/30 09:37:17;;;;;;;15.23;11.88;;;9.40;64.60;;;;;;5055628;28;20036;-79
2021/04/30 09:39:59;;;;;;;13.73;10.80;;;9.50;63.40;;;;;;5052296;28;20052;-79
2021/04/30 09:42:30;;;;;;;13.23;10.93;;;9.40;63.80;;;;;;5055780;28;20063;-81
2021/04/30 09:45:00;;;;;;;15.00;10.85;;;9.10;65.10;;;;;;5055700;28;20036;-81
2021/04/30 09:47:28;;;;;;;16.52;11.35;;;9.40;63.90;;;;;;5051889;28;20044;-79
2021/04/30 09:49:59;;;;;;;14.35;10.32;;;9.30;63.90;;;;;;5058299;28;20025;-82
2021/04/30 09:52:27;;;;;;;16.33;11.50;;;9.30;63.10;;;;;;5064704;28;20389;-81
2021/04/30 09:54:55;;;;;;;15.60;11.90;;;9.10;65.00;;;;;;5072776;28;20048;-81
2021/04/30 09:57:23;;;;;;;16.83;11.00;;;9.30;65.60;;;;;;5059982;28;20033;-81
2021/04/30 10:00:03;;;;;;;14.90;12.55;;;9.40;65.70;;;;;;5055939;28;20032;-82
2021/04/30 10:02:39;;;;;;;16.17;11.25;;;9.60;65.90;;;;;;5061573;28;20041;-81
2021/04/30 10:05:21;;;;;;;13.73;11.80;;;9.90;65.10;;;;;;5053726;28;20041;-81
2021/04/30 10:07:48;;;;;;;16.17;12.38;;;10.20;64.20;;;;;;5057966;28;20047;-80
2021/04/30 10:10:19;;;;;;;16.90;13.55;;;10.00;65.50;;;;;;5072681;28;20041;-80
2021/04/30 10:12:55;;;;;;;20.98;14.60;;;9.90;65.50;;;;;;5054075;28;20048;-81
2021/04/30 10:15:22;;;;;;;17.17;12.68;;;9.90;66.50;;;;;;5057814;28;20033;-82
2021/04/30 10:17:53;;;;;;;15.05;11.95;;;10.00;65.70;;;;;;5060741;28;20497;-81
2021/04/30 10:20:19;;;;;;;16.42;10.50;;;9.60;66.30;;;;;;5054466;28;20033;-81
2021/04/30 10:22:46;;;;;;;12.95;11.55;;;9.70;63.00;;;;;;5052687;28;20049;-81
2021/04/30 10:25:17;;;;;;;15.18;11.52;;;10.00;63.40;;;;;;5053912;28;20052;-81
2021/04/30 10:27:54;;;;;;;15.45;10.77;;;9.90;64.00;;;;;;5053797;28;20021;-81
2021/04/30 10:30:24;;;;;;;13.73;10.00;;;9.80;63.50;;;;;;5054126;28;20052;-81
2021/04/30 10:33:08;;;;;;;15.90;11.25;;;9.70;60.50;;;;;;5053172;28;20064;-80
2021/04/30 10:35:58;;;;;;;14.48;10.02;;;9.70;63.60;;;;;;5051874;28;20044;-79
2021/04/30 10:38:28;;;;;;;12.50;11.18;;;10.00;61.80;;;;;;5071426;28;20025;-75
2021/04/30 10:41:01;;;;;;;11.50;9.55;;;10.00;62.80;;;;;;5068616;28;20485;-77
2021/04/30 10:43:29;;;;;;;17.15;11.35;;;9.90;63.70;;;;;;5069274;28;20045;-76
2021/04/30 10:46:13;;;;;;;12.32;9.65;;;9.80;63.00;;;;;;5069530;28;20047;-77
2021/04/30 10:49:04;;;;;;;12.90;9.30;;;9.90;62.90;;;;;;5070006;28;20031;-77
2021/04/30 10:51:32;;;;;;;13.90;10.48;;;10.30;61.70;;;;;;5067194;28;20028;-77
2021/04/30 10:54:23;;;;;;;13.40;10.15;;;10.20;61.60;;;;;;5071901;28;20051;-76
2021/04/30 10:57:00;;;;;;;13.23;9.88;;;10.20;61.30;;;;;;5071979;28;20036;-76
2021/04/30 10:59:45;;;;;;;11.95;9.00;;;10.00;61.60;;;;;;5071575;28;20036;-76
2021/04/30 11:02:17;;;;;;;12.77;10.07;;;9.90;61.60;;;;;;5053870;28;20032;-78
2021/04/30 11:05:05;;;;;;;11.68;8.93;;;10.10;62.40;;;;;;5061055;28;20041;-76
2021/04/30 11:07:38;;;;;;;15.88;10.23;;;10.00;61.80;;;;;;5052777;28;20040;-80
2021/04/30 11:13:02;;;;;;;15.18;9.80;;;10.00;63.10;;;;;;5068857;28;20032;-81
2021/04/30 11:15:52;;;;;;;14.73;10.30;;;10.00;63.90;;;;;;5082264;28;20028;-76
2021/04/30 11:18:30;;;;;;;12.03;9.47;;;10.10;63.80;;;;;;5084444;28;20044;-80
2021/04/30 11:21:12;;;;;;;13.45;10.82;;;10.50;64.40;;;;;;5070078;28;20413;-80
2021/04/30 11:23:42;;;;;;;12.25;10.25;;;10.90;63.20;;;;;;5070246;28;20040;-81
2021/04/30 11:26:14;;;;;;;12.25;9.60;;;10.90;62.10;;;;;;5069161;28;20036;-76
2021/04/30 11:28:40;;;;;;;16.33;10.73;;;10.60;61.50;;;;;;5070522;28;20047;-76
2021/04/30 11:31:12;;;;;;;16.73;11.30;;;10.50;63.10;;;;;;5071395;28;20488;-77
2021/04/30 11:34:02;;;;;;;13.40;10.38;;;10.30;63.60;;;;;;5067316;28;20488;-76
2021/04/30 11:36:29;;;;;;;14.02;10.77;;;10.30;64.30;;;;;;5045602;28;20046;-75
2021/04/30 11:38:56;;;;;;;17.63;11.25;;;10.10;63.10;;;;;;5070840;28;20381;-76
2021/04/30 11:41:22;;;;;;;16.40;12.70;;;10.10;62.90;;;;;;5070817;28;20051;-76
2021/04/30 11:43:50;;;;;;;16.75;12.60;;;10.10;64.70;;;;;;5069499;28;20043;-75
2021/04/30 11:46:17;;;;;;;16.83;11.65;;;10.10;64.60;;;;;;5069682;28;20454;-76
2021/04/30 11:48:45;;;;;;;15.25;12.02;;;10.20;66.20;;;;;;5069758;28;20033;-76
2021/04/30 11:51:15;;;;;;;18.35;13.60;;;10.30;64.90;;;;;;5070585;28;20025;-76
2021/04/30 11:53:43;;;;;;;17.15;11.50;;;10.50;64.90;;;;;;5068683;28;20059;-76
2021/04/30 11:56:11;;;;;;;15.50;11.50;;;10.50;65.30;;;;;;5069294;28;20485;-76
2021/04/30 11:58:38;;;;;;;12.05;10.35;;;10.60;62.80;;;;;;5070194;28;20028;-77
2021/04/30 12:01:06;;;;;;;14.50;11.30;;;10.40;61.80;;;;;;5069292;28;20024;-77
2021/04/30 12:03:45;;;;;;;14.30;11.82;;;10.30;61.20;;;;;;5067485;28;20049;-77
2021/04/30 12:06:18;;;;;;;16.15;11.02;;;10.40;62.70;;;;;;5066994;28;20029;-76
2021/04/30 12:08:46;;;;;;;12.35;9.88;;;10.40;62.00;;;;;;5065065;28;20025;-80
2021/04/30 12:11:33;;;;;;;14.88;10.13;;;10.50;61.20;;;;;;5050612;28;20043;-79
2021/04/30 12:14:04;;;;;;;16.58;9.65;;;10.80;60.70;;;;;;5060009;28;20437;-81
2021/04/30 12:16:31;;;;;;;12.60;9.32;;;11.00;59.30;;;;;;5057109;28;20492;-81
2021/04/30 12:18:59;;;;;;;12.73;9.63;;;11.00;59.60;;;;;;5042045;28;20035;-77
2021/04/30 12:21:27;;;;;;;13.38;9.23;;;11.10;58.50;;;;;;5070797;28;20027;-84
2021/04/30 12:23:54;;;;;;;11.02;9.00;;;11.30;58.90;;;;;;5057361;28;20044;-85
2021/04/30 12:26:32;;;;;;;11.10;8.82;;;11.10;59.10;;;;;;5057222;28;20496;-84
2021/04/30 12:28:59;;;;;;;9.82;7.25;;;11.10;58.90;;;;;;5060386;28;20039;-84
2021/04/30 12:31:27;;;;;;;7.18;6.22;;;11.00;56.90;;;;;;5052038;28;20486;-84
2021/04/30 12:33:55;;;;;;;6.38;5.45;;;11.00;56.70;;;;;;5052540;28;20044;-85
2021/04/30 12:36:26;;;;;;;5.63;4.20;;;11.30;55.40;;;;;;5052159;28;20466;-84
2021/04/30 12:38:55;;;;;;;9.75;4.95;;;11.40;53.20;;;;;;5051607;28;20485;-85
2021/04/30 12:41:24;;;;;;;5.82;3.97;;;11.30;53.80;;;;;;5051945;28;20466;-85
2021/04/30 12:43:52;;;;;;;7.15;4.00;;;11.60;53.10;;;;;;5052891;28;20037;-85
2021/04/30 12:46:20;;;;;;;4.72;3.92;;;11.60;54.00;;;;;;5056772;28;20040;-83
2021/04/30 12:48:49;;;;;;;8.25;4.20;;;11.90;53.80;;;;;;5051661;28;20029;-84